Time;durP1;ratioP1;P1;durP2;ratioP2;P2;SDS_P1;SDS_P2;PMS_P1;PMS_P2;Temp;Humidity;BMP_temperature;BMP_pressure;BME280_temperature;BME280_humidity;BME280_pressure;Samples;Min_cycle;Max_cycle;Signal;HPM_P1;HPM_P2
2022/01/24 00:02:26;;;;;;;4.78;3.78;;;;;;;;;;5041400;28;20406;-76
2022/01/24 00:04:52;;;;;;;5.20;3.28;;;;;;;;;;5020853;28;20498;-76
2022/01/24 00:07:20;;;;;;;5.20;3.88;;;;;;;;;;5037284;28;20479;-76
2022/01/24 00:09:46;;;;;;;4.97;3.40;;;;;;;;;;5020912;28;20033;-76
2022/01/24 00:28:10;;;;;;;4.93;3.60;;;;;;;;;;5019668;28;20033;-76
2022/01/24 00:30:36;;;;;;;3.95;3.50;;;;;;;;;;5017242;28;20063;-76
2022/01/24 00:33:01;;;;;;;3.95;3.08;;;;;;;;;;5033279;28;20415;-76
2022/01/24 00:35:27;;;;;;;4.30;3.17;;;;;;;;;;5048426;28;20037;-76
2022/01/24 00:37:52;;;;;;;4.00;3.10;;;;;;;;;;5053788;28;20037;-76
2022/01/24 00:40:18;;;;;;;4.53;3.20;;;;;;;;;;5032028;28;20033;-76
2022/01/24 00:42:52;;;;;;;4.50;3.42;;;;;;;;;;5018321;28;20064;-76
2022/01/24 00:48:04;;;;;;;4.68;3.38;;;;;;;;;;5017042;28;20450;-76
2022/01/24 00:53:29;;;;;;;4.63;3.42;;;;;;;;;;5035938;28;20083;-76
2022/01/24 00:55:55;;;;;;;4.20;3.40;;;;;;;;;;5033387;28;20029;-76
2022/01/24 00:58:20;;;;;;;4.28;3.25;;;;;;;;;;5017074;28;20077;-76
2022/01/24 01:00:46;;;;;;;3.95;3.10;;;;;;;;;;5016511;28;20025;-76
2022/01/24 01:03:11;;;;;;;4.68;3.50;;;;;;;;;;5047289;28;20041;-76
2022/01/24 01:19:05;;;;;;;4.07;3.15;;;;;;;;;;4976832;28;20042;-76
2022/01/24 01:21:30;;;;;;;3.70;3.03;;;;;;;;;;5014777;28;20071;-76
2022/01/24 01:23:58;;;;;;;3.38;2.78;;;;;;;;;;5022986;28;20045;-76
2022/01/24 01:26:33;;;;;;;4.22;3.10;;;;;;;;;;5004829;28;20104;-76
2022/01/24 01:29:07;;;;;;;3.72;3.10;;;;;;;;;;4989906;28;20063;-76
2022/01/24 01:34:24;;;;;;;3.80;2.80;;;;;;;;;;5026479;28;20036;-76
2022/01/24 01:55:55;;;;;;;4.35;3.10;;;;;;;;;;5019909;28;20033;-76
2022/01/24 01:57:55;;;;;;;3.30;2.72;;;;;;;;;;5028958;28;20530;-76
2022/01/24 02:00:21;;;;;;;4.50;3.13;;;;;;;;;;5019763;28;20037;-76
2022/01/24 02:02:47;;;;;;;3.97;3.10;;;;;;;;;;5037953;28;20033;-76
2022/01/24 02:05:12;;;;;;;3.33;2.60;;;;;;;;;;5019699;28;20054;-76
2022/01/24 02:07:48;;;;;;;3.55;2.70;;;;;;;;;;5019424;28;20171;-76
2022/01/24 02:10:14;;;;;;;4.10;3.13;;;;;;;;;;5027205;28;20538;-76
2022/01/24 02:12:39;;;;;;;3.75;3.08;;;;;;;;;;5019552;28;20037;-76
2022/01/24 02:15:05;;;;;;;4.15;3.10;;;;;;;;;;5019761;28;20438;-76
2022/01/24 02:20:41;;;;;;;3.40;2.70;;;;;;;;;;5043322;28;20076;-76
2022/01/24 02:23:30;;;;;;;4.40;3.03;;;;;;;;;;5035878;28;20117;-76
2022/01/24 02:25:58;;;;;;;3.70;2.90;;;;;;;;;;5036335;28;20078;-76
2022/01/24 02:28:26;;;;;;;3.33;2.90;;;;;;;;;;5035782;28;20036;-76
2022/01/24 02:31:05;;;;;;;4.18;2.92;;;;;;;;;;5035541;28;20037;-76
2022/01/24 02:33:30;;;;;;;3.58;2.83;;;;;;;;;;5020550;28;20037;-76
2022/01/24 02:35:56;;;;;;;3.50;2.90;;;;;;;;;;5037374;28;20036;-76
2022/01/24 02:38:53;;;;;;;4.30;3.17;;;;;;;;;;5039100;28;20025;-76
2022/01/24 02:49:34;;;;;;;3.78;2.90;;;;;;;;;;5020867;28;20124;-76
2022/01/24 02:52:09;;;;;;;3.47;2.50;;;;;;;;;;5027421;28;20043;-76
2022/01/24 02:54:35;;;;;;;3.95;3.03;;;;;;;;;;5022564;28;20053;-76
2022/01/24 02:57:01;;;;;;;3.95;2.90;;;;;;;;;;5038468;28;20035;-76
2022/01/24 02:59:27;;;;;;;4.18;3.28;;;;;;;;;;5038367;28;20028;-76
2022/01/24 03:01:53;;;;;;;3.83;2.53;;;;;;;;;;5021755;28;20035;-76
2022/01/24 03:04:18;;;;;;;3.85;2.85;;;;;;;;;;5038803;28;20071;-76
2022/01/24 03:06:44;;;;;;;3.67;2.92;;;;;;;;;;5045734;28;20041;-76
2022/01/24 03:09:10;;;;;;;4.30;2.75;;;;;;;;;;5002116;28;20119;-76
2022/01/24 03:12:01;;;;;;;3.60;2.70;;;;;;;;;;5035329;28;20036;-76
2022/01/24 03:14:26;;;;;;;4.00;2.95;;;;;;;;;;5044274;28;20083;-76
2022/01/24 03:16:51;;;;;;;3.35;2.55;;;;;;;;;;5038122;28;20087;-76
2022/01/24 03:19:17;;;;;;;4.13;2.80;;;;;;;;;;5037881;28;20509;-76
2022/01/24 03:21:43;;;;;;;3.22;2.63;;;;;;;;;;5037937;28;20458;-76
2022/01/24 03:24:11;;;;;;;4.40;2.88;;;;;;;;;;5026232;28;20037;-76
2022/01/24 03:26:36;;;;;;;4.00;2.95;;;;;;;;;;5044671;28;20029;-76
2022/01/24 03:29:02;;;;;;;3.80;2.47;;;;;;;;;;5017847;28;20051;-76
2022/01/24 03:31:28;;;;;;;3.60;2.90;;;;;;;;;;5001757;28;20437;-76
2022/01/24 03:33:53;;;;;;;3.88;2.55;;;;;;;;;;5019591;28;20037;-76
2022/01/24 03:36:19;;;;;;;4.00;2.88;;;;;;;;;;5021235;28;20430;-76
2022/01/24 03:38:44;;;;;;;3.83;2.70;;;;;;;;;;5070271;28;20445;-76
2022/01/24 03:41:09;;;;;;;3.63;2.95;;;;;;;;;;5037706;28;20387;-76
2022/01/24 03:43:35;;;;;;;4.30;2.80;;;;;;;;;;5037564;28;20376;-76
2022/01/24 03:46:14;;;;;;;3.70;2.50;;;;;;;;;;5021211;28;20086;-76
2022/01/24 03:48:48;;;;;;;3.83;2.65;;;;;;;;;;5024321;28;20040;-76
2022/01/24 03:51:14;;;;;;;4.10;2.95;;;;;;;;;;5023495;28;20486;-76
2022/01/24 03:53:40;;;;;;;2.97;2.47;;;;;;;;;;5021154;28;20095;-76
2022/01/24 03:56:05;;;;;;;4.03;2.80;;;;;;;;;;5017859;28;20028;-76
2022/01/24 03:58:31;;;;;;;3.78;2.90;;;;;;;;;;5017994;28;20037;-76
2022/01/24 04:00:57;;;;;;;3.80;2.88;;;;;;;;;;5033750;28;20036;-76
2022/01/24 04:03:22;;;;;;;3.60;2.60;;;;;;;;;;5033060;28;20036;-76
2022/01/24 04:05:48;;;;;;;3.85;2.72;;;;;;;;;;5016502;28;20036;-75
2022/01/24 04:08:13;;;;;;;3.80;2.67;;;;;;;;;;5017404;28;20044;-76
2022/01/24 04:10:44;;;;;;;3.58;2.60;;;;;;;;;;5001119;28;20040;-76
2022/01/24 04:13:24;;;;;;;3.75;2.55;;;;;;;;;;5002668;28;20041;-76
2022/01/24 04:18:40;;;;;;;4.00;2.90;;;;;;;;;;5020683;28;20033;-76
2022/01/24 04:23:57;;;;;;;3.33;2.40;;;;;;;;;;5035958;28;20130;-76
2022/01/24 04:26:23;;;;;;;3.78;2.97;;;;;;;;;;5019999;28;20037;-76
2022/01/24 04:28:48;;;;;;;3.85;2.80;;;;;;;;;;5017004;28;20102;-76
2022/01/24 04:31:14;;;;;;;3.75;3.03;;;;;;;;;;5033880;28;20037;-76
2022/01/24 04:33:40;;;;;;;3.50;2.40;;;;;;;;;;5029567;28;20041;-76
2022/01/24 04:36:06;;;;;;;3.67;2.80;;;;;;;;;;5020823;28;20070;-76
2022/01/24 04:38:32;;;;;;;4.30;3.13;;;;;;;;;;5037134;28;20029;-76
2022/01/24 04:41:01;;;;;;;3.25;2.75;;;;;;;;;;5019138;28;20056;-76
2022/01/24 04:43:50;;;;;;;3.70;2.90;;;;;;;;;;5017307;28;20029;-76
2022/01/24 04:51:32;;;;;;;3.60;2.83;;;;;;;;;;5021817;28;20095;-76
2022/01/24 04:54:42;;;;;;;3.40;2.50;;;;;;;;;;5025383;28;20069;-76
2022/01/24 04:56:43;;;;;;;3.20;2.35;;;;;;;;;;5013159;28;20052;-76
2022/01/24 04:59:09;;;;;;;4.18;3.05;;;;;;;;;;5021331;28;20406;-75
2022/01/24 05:01:34;;;;;;;4.22;3.28;;;;;;;;;;5040403;28;20437;-76
2022/01/24 05:04:00;;;;;;;3.08;2.50;;;;;;;;;;5040747;28;20043;-76
2022/01/24 05:06:25;;;;;;;4.03;2.75;;;;;;;;;;5040975;28;20036;-76
2022/01/24 05:08:51;;;;;;;3.50;2.75;;;;;;;;;;5040349;28;20036;-76
2022/01/24 05:11:22;;;;;;;4.90;2.47;;;;;;;;;;5075583;28;20067;-76
2022/01/24 05:24:36;;;;;;;3.30;2.80;;;;;;;;;;5037827;28;20067;-76
2022/01/24 05:27:02;;;;;;;4.22;2.75;;;;;;;;;;5020746;28;20044;-76
2022/01/24 05:29:27;;;;;;;4.60;2.80;;;;;;;;;;5019863;28;20033;-76
2022/01/24 05:31:53;;;;;;;4.63;2.42;;;;;;;;;;5020354;28;20049;-76
2022/01/24 05:34:19;;;;;;;5.57;2.50;;;;;;;;;;5034932;28;20033;-76
2022/01/24 05:36:44;;;;;;;3.47;2.53;;;;;;;;;;5036617;28;20059;-76
2022/01/24 05:39:11;;;;;;;4.28;3.00;;;;;;;;;;5020062;28;20086;-76
2022/01/24 05:41:37;;;;;;;3.88;2.65;;;;;;;;;;5020573;28;20040;-76
2022/01/24 05:44:05;;;;;;;3.28;2.55;;;;;;;;;;5004367;28;20037;-76
2022/01/24 05:46:30;;;;;;;2.72;2.03;;;;;;;;;;5015715;28;20045;-76
2022/01/24 05:48:56;;;;;;;3.97;2.92;;;;;;;;;;5036414;28;20041;-76
2022/01/24 05:51:21;;;;;;;3.63;2.70;;;;;;;;;;5003777;28;20057;-76
2022/01/24 05:53:47;;;;;;;4.22;2.58;;;;;;;;;;5036187;28;20036;-76
2022/01/24 05:56:12;;;;;;;4.13;2.92;;;;;;;;;;5021178;28;20049;-76
2022/01/24 05:58:38;;;;;;;3.38;2.38;;;;;;;;;;5019883;28;20033;-76
2022/01/24 06:01:03;;;;;;;3.67;2.70;;;;;;;;;;5018634;28;20403;-76
2022/01/24 06:03:29;;;;;;;3.50;2.63;;;;;;;;;;5032489;28;20430;-76
2022/01/24 06:05:54;;;;;;;3.60;2.60;;;;;;;;;;5019750;28;20484;-76
2022/01/24 06:08:20;;;;;;;3.83;3.00;;;;;;;;;;5036135;28;20033;-76
2022/01/24 06:10:47;;;;;;;3.47;2.60;;;;;;;;;;4990311;28;20071;-76
2022/01/24 06:13:12;;;;;;;3.63;2.70;;;;;;;;;;5019532;28;20128;-76
2022/01/24 06:15:38;;;;;;;3.72;2.58;;;;;;;;;;5015445;28;20044;-75
2022/01/24 06:18:03;;;;;;;4.05;2.53;;;;;;;;;;5022994;28;20040;-76
2022/01/24 06:20:29;;;;;;;4.50;2.55;;;;;;;;;;5022778;28;20113;-76
2022/01/24 06:22:54;;;;;;;3.40;2.70;;;;;;;;;;5027221;28;20033;-76
2022/01/24 06:25:23;;;;;;;3.45;2.45;;;;;;;;;;5035885;28;20049;-76
2022/01/24 06:27:48;;;;;;;3.80;2.65;;;;;;;;;;4987360;28;20520;-76
2022/01/24 06:30:14;;;;;;;3.58;2.83;;;;;;;;;;5052970;28;20045;-76
2022/01/24 06:32:39;;;;;;;3.90;3.00;;;;;;;;;;5035766;28;20395;-76
2022/01/24 06:35:05;;;;;;;3.70;2.60;;;;;;;;;;5014446;28;20040;-76
2022/01/24 06:37:31;;;;;;;4.47;2.90;;;;;;;;;;5053124;28;20025;-76
2022/01/24 06:39:56;;;;;;;4.40;3.15;;;;;;;;;;5016091;28;20400;-76
2022/01/24 06:42:23;;;;;;;5.20;3.05;;;;;;;;;;4999743;28;20415;-77
2022/01/24 06:44:53;;;;;;;4.03;3.08;;;;;;;;;;5011844;28;20055;-76
2022/01/24 06:47:18;;;;;;;4.53;3.03;;;;;;;;;;5017170;28;20515;-76
2022/01/24 06:49:44;;;;;;;4.32;2.40;;;;;;;;;;5038657;28;20040;-76
2022/01/24 06:52:09;;;;;;;8.27;3.58;;;;;;;;;;5016523;28;20041;-76
2022/01/24 06:54:35;;;;;;;5.53;2.95;;;;;;;;;;5002545;28;20127;-76
2022/01/24 06:57:01;;;;;;;9.40;3.30;;;;;;;;;;5032398;28;20533;-76
2022/01/24 06:59:26;;;;;;;5.72;3.50;;;;;;;;;;5021539;28;20558;-75
2022/01/24 07:01:52;;;;;;;48.83;40.67;;;;;;;;;;5038586;28;20153;-75
2022/01/24 07:04:17;;;;;;;66.07;56.63;;;;;;;;;;5006446;28;20048;-75
2022/01/24 07:06:42;;;;;;;44.42;38.00;;;;;;;;;;5052743;28;20441;-76
2022/01/24 07:09:08;;;;;;;32.65;27.67;;;;;;;;;;5018593;28;20048;-76
2022/01/24 07:11:34;;;;;;;26.48;23.40;;;;;;;;;;5018191;28;20072;-76
2022/01/24 07:14:00;;;;;;;27.25;23.85;;;;;;;;;;5002845;28;20074;-76
2022/01/24 07:16:36;;;;;;;29.25;21.85;;;;;;;;;;5018358;28;20037;-75
2022/01/24 07:19:03;;;;;;;28.33;21.55;;;;;;;;;;5021354;28;20041;-76
2022/01/24 07:21:29;;;;;;;26.48;20.15;;;;;;;;;;5019677;28;20124;-75
2022/01/24 07:23:54;;;;;;;30.60;19.70;;;;;;;;;;5034649;28;20166;-75
2022/01/24 07:26:20;;;;;;;26.05;18.63;;;;;;;;;;5072059;28;20082;-75
2022/01/24 07:28:45;;;;;;;32.72;18.23;;;;;;;;;;5054355;28;20445;-75
2022/01/24 07:31:11;;;;;;;22.55;18.75;;;;;;;;;;5037643;28;20449;-75
2022/01/24 07:33:37;;;;;;;24.38;16.75;;;;;;;;;;5037443;28;20070;-75
2022/01/24 07:36:03;;;;;;;20.35;16.65;;;;;;;;;;5036209;28;20055;-75
2022/01/24 07:38:29;;;;;;;21.33;16.02;;;;;;;;;;5018765;28;20060;-75
2022/01/24 07:40:56;;;;;;;20.83;16.13;;;;;;;;;;5001198;28;20045;-75
2022/01/24 07:43:21;;;;;;;18.73;15.50;;;;;;;;;;5018090;28;20032;-74
2022/01/24 07:45:47;;;;;;;20.17;16.58;;;;;;;;;;5017570;28;20064;-75
2022/01/24 07:48:13;;;;;;;20.02;14.90;;;;;;;;;;5017707;28;20041;-75
2022/01/24 07:50:41;;;;;;;19.30;14.00;;;;;;;;;;5018048;28;20094;-77
2022/01/24 07:53:07;;;;;;;20.50;14.95;;;;;;;;;;5002632;28;20036;-78
2022/01/24 07:55:33;;;;;;;19.17;13.27;;;;;;;;;;5017500;28;20052;-76
2022/01/24 07:57:59;;;;;;;21.70;13.88;;;;;;;;;;5017943;28;20446;-76
2022/01/24 08:00:24;;;;;;;17.70;12.43;;;;;;;;;;4984586;28;20031;-77
2022/01/24 08:02:53;;;;;;;16.95;11.73;;;;;;;;;;5022956;28;20528;-76
2022/01/24 08:05:19;;;;;;;17.67;12.25;;;;;;;;;;5009212;28;20036;-77
2022/01/24 08:07:51;;;;;;;23.60;12.52;;;;;;;;;;5018797;28;20043;-77
2022/01/24 08:10:17;;;;;;;17.63;12.35;;;;;;;;;;5035217;28;20058;-77
2022/01/24 08:12:44;;;;;;;15.77;12.27;;;;;;;;;;5026269;28;20037;-77
2022/01/24 08:15:12;;;;;;;16.30;11.10;;;;;;;;;;5022941;28;20135;-76
2022/01/24 08:17:37;;;;;;;23.58;12.18;;;;;;;;;;5011515;28;20032;-74
2022/01/24 08:20:03;;;;;;;13.90;11.20;;;;;;;;;;5053495;28;20048;-75
2022/01/24 08:22:28;;;;;;;13.32;9.88;;;;;;;;;;5031673;28;20415;-74
2022/01/24 08:24:54;;;;;;;17.13;10.52;;;;;;;;;;5032758;28;20049;-75
2022/01/24 08:27:19;;;;;;;15.68;11.07;;;;;;;;;;5038431;28;20383;-75
2022/01/24 08:29:47;;;;;;;15.55;9.73;;;;;;;;;;5017736;28;20094;-75
2022/01/24 08:32:13;;;;;;;13.00;9.18;;;;;;;;;;5029807;28;20078;-75
2022/01/24 08:34:38;;;;;;;10.75;9.65;;;;;;;;;;5028487;28;20041;-75
2022/01/24 08:37:05;;;;;;;12.65;9.48;;;;;;;;;;5033384;28;20041;-75
2022/01/24 08:39:30;;;;;;;12.80;9.63;;;;;;;;;;5021792;28;20625;-75
2022/01/24 08:45:41;;;;;;;12.07;8.65;;;;;;;;;;5018081;28;20399;-74
2022/01/24 08:47:07;;;;;;;10.55;8.75;;;;;;;;;;5036383;28;20622;-75
2022/01/24 08:49:32;;;;;;;15.63;9.00;;;;;;;;;;5016808;28;20116;-74
2022/01/24 08:51:59;;;;;;;14.00;9.30;;;;;;;;;;5039693;28;20044;-74
2022/01/24 08:54:25;;;;;;;12.52;8.98;;;;;;;;;;5050036;28;20537;-74
2022/01/24 08:56:50;;;;;;;14.48;8.90;;;;;;;;;;5036717;28;20040;-74
2022/01/24 08:59:16;;;;;;;13.95;8.35;;;;;;;;;;5036813;28;20045;-74
2022/01/24 09:01:43;;;;;;;15.82;9.00;;;;;;;;;;5052161;28;20410;-75
2022/01/24 09:04:09;;;;;;;15.00;8.15;;;;;;;;;;5029191;28;20563;-74
2022/01/24 09:06:34;;;;;;;12.93;8.55;;;;;;;;;;5034740;28;20037;-74
2022/01/24 09:09:04;;;;;;;21.42;8.90;;;;;;;;;;5016360;28;20677;-74
2022/01/24 09:11:32;;;;;;;18.13;8.98;;;;;;;;;;5001781;28;20426;-75
2022/01/24 09:13:57;;;;;;;14.52;8.77;;;;;;;;;;5017261;28;20518;-75
2022/01/24 09:16:23;;;;;;;13.60;8.30;;;;;;;;;;5033644;28;20124;-75
2022/01/24 09:18:49;;;;;;;19.27;8.98;;;;;;;;;;5016861;28;20044;-75
2022/01/24 09:21:15;;;;;;;20.85;9.27;;;;;;;;;;5034587;28;20060;-75
2022/01/24 09:23:40;;;;;;;14.85;7.82;;;;;;;;;;5037767;28;20045;-75
2022/01/24 09:26:05;;;;;;;15.45;8.70;;;;;;;;;;5017302;28;20400;-78
2022/01/24 09:28:31;;;;;;;15.18;8.00;;;;;;;;;;5000638;28;20037;-76
2022/01/24 09:30:57;;;;;;;17.58;7.88;;;;;;;;;;5017714;28;20044;-76
2022/01/24 09:33:23;;;;;;;13.88;8.38;;;;;;;;;;5016545;28;20506;-75
2022/01/24 09:35:49;;;;;;;12.55;8.18;;;;;;;;;;5015405;28;20041;-75
2022/01/24 09:38:16;;;;;;;16.08;7.47;;;;;;;;;;5035832;28;20112;-73
2022/01/24 09:40:43;;;;;;;12.80;8.18;;;;;;;;;;5037084;28;20041;-74
2022/01/24 09:43:08;;;;;;;9.18;7.03;;;;;;;;;;5051949;28;20041;-73
2022/01/24 09:45:34;;;;;;;13.38;7.93;;;;;;;;;;5020183;28;20236;-73
2022/01/24 09:47:59;;;;;;;11.38;6.63;;;;;;;;;;5020147;28;20041;-73
2022/01/24 09:50:25;;;;;;;10.68;6.00;;;;;;;;;;5020331;28;20041;-74
2022/01/24 09:52:50;;;;;;;8.30;6.63;;;;;;;;;;5035829;28;20033;-76
2022/01/24 09:55:17;;;;;;;9.55;5.80;;;;;;;;;;5003807;28;20044;-76
2022/01/24 09:57:43;;;;;;;10.32;5.78;;;;;;;;;;5037933;28;20040;-76
2022/01/24 10:00:11;;;;;;;8.82;6.05;;;;;;;;;;5039347;28;20040;-76
2022/01/24 10:02:37;;;;;;;8.25;5.70;;;;;;;;;;5045957;28;20039;-75
2022/01/24 10:05:17;;;;;;;7.13;5.43;;;;;;;;;;5003587;28;20068;-75
2022/01/24 10:08:13;;;;;;;6.80;5.57;;;;;;;;;;5035963;28;20037;-75
2022/01/24 10:10:43;;;;;;;8.32;6.30;;;;;;;;;;5034044;28;20503;-76
2022/01/24 10:16:25;;;;;;;9.30;6.18;;;;;;;;;;5054816;28;20029;-76
2022/01/24 10:19:07;;;;;;;8.57;5.80;;;;;;;;;;5020678;28;20043;-76
2022/01/24 10:21:49;;;;;;;10.35;6.72;;;;;;;;;;5023310;28;20032;-75
2022/01/24 10:24:35;;;;;;;10.07;5.88;;;;;;;;;;5019046;28;20067;-77
2022/01/24 10:27:07;;;;;;;8.07;4.70;;;;;;;;;;5035962;28;20074;-77
2022/01/24 10:29:32;;;;;;;8.80;5.00;;;;;;;;;;5035479;28;20025;-77
2022/01/24 10:31:58;;;;;;;8.55;5.18;;;;;;;;;;5003114;28;20298;-77
2022/01/24 10:34:34;;;;;;;8.80;4.65;;;;;;;;;;5025106;28;20047;-77
2022/01/24 10:37:00;;;;;;;6.53;4.15;;;;;;;;;;5041961;28;20075;-76
2022/01/24 10:44:57;;;;;;;6.00;4.00;;;;;;;;;;5055107;28;20039;-77
2022/01/24 10:47:24;;;;;;;7.35;3.83;;;;;;;;;;5024958;28;20037;-77
2022/01/24 10:49:51;;;;;;;5.72;3.53;;;;;;;;;;5018945;28;20406;-77
2022/01/24 10:52:35;;;;;;;6.03;3.33;;;;;;;;;;5018388;28;20044;-76
2022/01/24 10:55:26;;;;;;;6.20;3.60;;;;;;;;;;5019068;28;20538;-77
2022/01/24 10:57:58;;;;;;;7.03;3.50;;;;;;;;;;5018676;28;20116;-77
2022/01/24 11:00:26;;;;;;;6.82;3.97;;;;;;;;;;5034930;28;20580;-77
2022/01/24 11:02:53;;;;;;;9.52;4.38;;;;;;;;;;5019122;28;20036;-77
2022/01/24 11:05:22;;;;;;;8.95;3.80;;;;;;;;;;5022022;28;20064;-76
2022/01/24 11:08:02;;;;;;;5.70;3.20;;;;;;;;;;5026805;28;20044;-76
2022/01/24 11:10:29;;;;;;;8.27;3.72;;;;;;;;;;5034993;28;20029;-76
2022/01/24 11:12:55;;;;;;;7.60;4.32;;;;;;;;;;5002174;28;20037;-76
2022/01/24 11:15:21;;;;;;;10.38;4.40;;;;;;;;;;5018588;28;20051;-77
2022/01/24 11:17:47;;;;;;;8.40;3.97;;;;;;;;;;5005603;28;20032;-77
2022/01/24 11:20:16;;;;;;;11.52;3.60;;;;;;;;;;4986064;28;20033;-76
2022/01/24 11:22:49;;;;;;;9.77;3.50;;;;;;;;;;5018758;28;20090;-77
2022/01/24 11:25:14;;;;;;;7.70;4.25;;;;;;;;;;5003043;28;20087;-76
2022/01/24 11:27:44;;;;;;;7.75;3.20;;;;;;;;;;5011275;28;20518;-76
2022/01/24 11:30:14;;;;;;;10.98;4.47;;;;;;;;;;5017632;28;20043;-76
2022/01/24 11:32:53;;;;;;;6.78;3.92;;;;;;;;;;5034037;28;20048;-76
2022/01/24 11:35:40;;;;;;;10.35;4.53;;;;;;;;;;5054256;28;20045;-76
2022/01/24 11:38:24;;;;;;;9.68;3.80;;;;;;;;;;5042445;28;20069;-76
2022/01/24 11:40:53;;;;;;;7.63;3.40;;;;;;;;;;5034559;28;20098;-76
2022/01/24 11:43:27;;;;;;;7.65;3.65;;;;;;;;;;5049515;28;20396;-76
2022/01/24 11:46:07;;;;;;;10.73;3.72;;;;;;;;;;5034213;28;20032;-76
2022/01/24 11:48:36;;;;;;;10.48;3.63;;;;;;;;;;4988952;28;20037;-76
2022/01/24 11:51:11;;;;;;;9.18;3.47;;;;;;;;;;5018435;28;20040;-76
2022/01/24 11:53:48;;;;;;;10.77;3.63;;;;;;;;;;5018356;28;20037;-76
2022/01/24 11:56:23;;;;;;;10.82;4.78;;;;;;;;;;5036030;28;20037;-76
2022/01/24 11:58:48;;;;;;;11.73;4.28;;;;;;;;;;5051707;28;20075;-76
2022/01/24 12:01:32;;;;;;;8.63;3.75;;;;;;;;;;5032905;28;20404;-76
2022/01/24 12:03:57;;;;;;;9.43;3.47;;;;;;;;;;5017620;28;20040;-76
2022/01/24 12:06:23;;;;;;;10.60;3.22;;;;;;;;;;5034363;28;20036;-76
2022/01/24 12:08:49;;;;;;;6.85;3.63;;;;;;;;;;5017710;28;20041;-76
2022/01/24 12:11:16;;;;;;;4.65;2.90;;;;;;;;;;5017282;28;20071;-76
2022/01/24 12:13:46;;;;;;;5.95;3.08;;;;;;;;;;5033771;28;20044;-76
2022/01/24 12:16:13;;;;;;;10.65;4.20;;;;;;;;;;5033968;28;20025;-76
2022/01/24 12:18:38;;;;;;;6.00;2.80;;;;;;;;;;5017602;28;20472;-76
2022/01/24 12:21:14;;;;;;;6.60;3.60;;;;;;;;;;5034291;28;20065;-75
2022/01/24 12:23:51;;;;;;;5.28;2.85;;;;;;;;;;5031683;28;20098;-76
2022/01/24 12:26:16;;;;;;;6.60;3.03;;;;;;;;;;5037654;28;20074;-76
2022/01/24 12:28:42;;;;;;;5.85;3.05;;;;;;;;;;5071633;28;20434;-76
2022/01/24 12:31:09;;;;;;;6.65;3.72;;;;;;;;;;5067366;28;20045;-76
2022/01/24 12:33:38;;;;;;;5.30;3.47;;;;;;;;;;5033625;28;20118;-76
2022/01/24 12:36:08;;;;;;;6.65;2.65;;;;;;;;;;5050497;28;20399;-76
2022/01/24 12:38:41;;;;;;;4.30;2.72;;;;;;;;;;5017077;28;20041;-76
2022/01/24 12:41:38;;;;;;;6.25;3.55;;;;;;;;;;5034280;28;20391;-76
2022/01/24 12:46:31;;;;;;;8.40;3.55;;;;;;;;;;5017030;28;20102;-76
2022/01/24 12:48:58;;;;;;;3.75;2.65;;;;;;;;;;5016944;28;20099;-76
2022/01/24 12:51:23;;;;;;;3.70;2.72;;;;;;;;;;5016871;28;20041;-76
2022/01/24 12:53:49;;;;;;;5.05;2.90;;;;;;;;;;5033217;28;20045;-76
2022/01/24 12:56:16;;;;;;;3.97;2.92;;;;;;;;;;5000950;28;20037;-76
2022/01/24 12:58:48;;;;;;;5.22;2.70;;;;;;;;;;5017191;28;20426;-76
2022/01/24 13:01:27;;;;;;;5.50;2.92;;;;;;;;;;5016960;28;20519;-76
2022/01/24 13:03:59;;;;;;;7.57;2.80;;;;;;;;;;5016980;28;20070;-76
2022/01/24 13:06:26;;;;;;;6.90;3.08;;;;;;;;;;5033722;28;20563;-76
2022/01/24 13:08:52;;;;;;;5.28;2.72;;;;;;;;;;5016922;28;20395;-75
2022/01/24 13:11:18;;;;;;;7.25;3.13;;;;;;;;;;5051773;28;20037;-76
2022/01/24 13:14:15;;;;;;;4.50;2.67;;;;;;;;;;5036757;28;20095;-76
2022/01/24 13:22:30;;;;;;;5.50;3.25;;;;;;;;;;5026233;28;20380;-76
2022/01/24 13:25:14;;;;;;;4.78;2.65;;;;;;;;;;5037893;28;20136;-76
2022/01/24 13:27:41;;;;;;;4.50;2.50;;;;;;;;;;5004435;28;20073;-76
2022/01/24 13:30:18;;;;;;;4.50;3.13;;;;;;;;;;5019975;28;20040;-76
2022/01/24 13:32:47;;;;;;;4.43;3.00;;;;;;;;;;5021779;28;20040;-76
2022/01/24 13:35:27;;;;;;;5.95;2.33;;;;;;;;;;5067606;28;20123;-76
2022/01/24 13:38:13;;;;;;;3.92;2.40;;;;;;;;;;5056499;28;20029;-76
2022/01/24 13:40:52;;;;;;;5.15;3.08;;;;;;;;;;5040540;28;20028;-76
2022/01/24 13:43:41;;;;;;;6.50;3.13;;;;;;;;;;5074520;28;20102;-76
2022/01/24 13:46:10;;;;;;;5.50;2.83;;;;;;;;;;5039536;28;20032;-76
2022/01/24 13:48:56;;;;;;;4.40;2.70;;;;;;;;;;5036564;28;20041;-76
2022/01/24 13:51:35;;;;;;;4.88;2.97;;;;;;;;;;5012532;28;20525;-76
2022/01/24 13:54:01;;;;;;;3.60;2.15;;;;;;;;;;5021496;28;20076;-76
2022/01/24 13:56:31;;;;;;;5.07;2.47;;;;;;;;;;5020223;28;20051;-76
2022/01/24 13:59:00;;;;;;;3.50;2.13;;;;;;;;;;5053883;28;20036;-75
2022/01/24 14:01:26;;;;;;;3.75;2.60;;;;;;;;;;5036857;28;20033;-76
2022/01/24 14:04:01;;;;;;;3.65;2.53;;;;;;;;;;5035955;28;20044;-76
2022/01/24 14:06:30;;;;;;;5.07;2.65;;;;;;;;;;5019982;28;20045;-76
2022/01/24 14:09:10;;;;;;;3.80;2.50;;;;;;;;;;5036141;28;20043;-75
2022/01/24 14:11:53;;;;;;;4.43;2.50;;;;;;;;;;5039452;28;20024;-76
2022/01/24 14:14:25;;;;;;;4.68;2.80;;;;;;;;;;5039559;28;20044;-76
2022/01/24 14:19:35;;;;;;;4.35;2.70;;;;;;;;;;5037715;28;20040;-76
2022/01/24 14:22:09;;;;;;;7.70;3.25;;;;;;;;;;5028675;28;20033;-76
2022/01/24 14:24:54;;;;;;;6.50;2.55;;;;;;;;;;5020512;28;20070;-76
2022/01/24 14:27:39;;;;;;;5.90;2.88;;;;;;;;;;5046200;28;20037;-75
2022/01/24 14:30:20;;;;;;;11.82;4.03;;;;;;;;;;5035334;28;20041;-76
2022/01/24 14:33:06;;;;;;;8.52;3.33;;;;;;;;;;5019037;28;20029;-75
2022/01/24 14:35:37;;;;;;;7.78;3.13;;;;;;;;;;5036030;28;20395;-76
2022/01/24 14:38:03;;;;;;;4.93;3.20;;;;;;;;;;5036226;28;20033;-76
2022/01/24 14:40:33;;;;;;;7.75;3.42;;;;;;;;;;5038583;28;20526;-76
2022/01/24 14:45:42;;;;;;;9.10;3.55;;;;;;;;;;5031877;28;20033;-76
2022/01/24 14:48:08;;;;;;;5.20;2.95;;;;;;;;;;5002438;28;20518;-75
2022/01/24 14:50:33;;;;;;;7.35;3.33;;;;;;;;;;5022335;28;20035;-76
2022/01/24 14:53:03;;;;;;;9.93;3.50;;;;;;;;;;5038237;28;20561;-76
2022/01/24 14:55:29;;;;;;;8.50;3.60;;;;;;;;;;5028117;28;20127;-76
2022/01/24 14:57:54;;;;;;;17.40;9.15;;;;;;;;;;5002319;28;20109;-76
2022/01/24 15:00:20;;;;;;;31.85;16.75;;;;;;;;;;5016022;28;20079;-77
2022/01/24 15:02:45;;;;;;;33.72;18.55;;;;;;;;;;5018387;28;20033;-77
2022/01/24 15:05:11;;;;;;;32.47;18.70;;;;;;;;;;5002582;28;20036;-77
2022/01/24 15:07:37;;;;;;;33.30;17.38;;;;;;;;;;5018866;28;20048;-77
2022/01/24 15:10:04;;;;;;;32.47;16.85;;;;;;;;;;5002314;28;20045;-77
2022/01/24 15:12:30;;;;;;;32.42;17.75;;;;;;;;;;4995798;28;20036;-78
2022/01/24 15:14:59;;;;;;;21.90;14.05;;;;;;;;;;5037839;28;20098;-77
2022/01/24 15:25:22;;;;;;;26.35;13.05;;;;;;;;;;5024422;28;20072;-77
2022/01/24 15:27:51;;;;;;;24.13;12.77;;;;;;;;;;5018875;28;20056;-77
2022/01/24 15:30:18;;;;;;;26.52;13.25;;;;;;;;;;5018607;28;20055;-77
2022/01/24 15:32:44;;;;;;;24.90;14.07;;;;;;;;;;5001670;28;20040;-77
2022/01/24 15:35:10;;;;;;;30.13;14.00;;;;;;;;;;5031552;28;20052;-77
2022/01/24 15:37:35;;;;;;;25.20;12.80;;;;;;;;;;5018035;28;20090;-77
2022/01/24 15:40:01;;;;;;;24.35;13.25;;;;;;;;;;5050601;28;20036;-77
2022/01/24 15:42:52;;;;;;;29.73;14.07;;;;;;;;;;5037423;28;20109;-77
2022/01/24 15:48:04;;;;;;;32.13;13.20;;;;;;;;;;5042669;28;20033;-77
2022/01/24 15:50:30;;;;;;;33.38;17.05;;;;;;;;;;5021180;28;20538;-77
2022/01/24 15:52:56;;;;;;;34.67;16.00;;;;;;;;;;5019004;28;20032;-77
2022/01/24 15:55:26;;;;;;;28.15;15.25;;;;;;;;;;5018279;28;20560;-77
2022/01/24 15:57:52;;;;;;;30.58;15.25;;;;;;;;;;5008347;28;20032;-77
2022/01/24 16:00:19;;;;;;;25.45;13.25;;;;;;;;;;5052275;28;20111;-77
2022/01/24 16:02:48;;;;;;;27.15;14.45;;;;;;;;;;5033892;28;20113;-77
2022/01/24 16:05:14;;;;;;;27.80;14.13;;;;;;;;;;5018302;28;20118;-77
2022/01/24 16:07:40;;;;;;;22.75;13.68;;;;;;;;;;5000924;28;20121;-77
2022/01/24 16:10:10;;;;;;;23.00;13.23;;;;;;;;;;5001079;28;20567;-77
2022/01/24 16:12:39;;;;;;;30.40;14.25;;;;;;;;;;5018387;28;20110;-78
2022/01/24 16:15:06;;;;;;;22.95;12.68;;;;;;;;;;5001678;28;20116;-77
2022/01/24 16:17:31;;;;;;;23.95;13.35;;;;;;;;;;4999906;28;20041;-78
2022/01/24 16:19:57;;;;;;;24.90;13.93;;;;;;;;;;5033947;28;20047;-77
2022/01/24 16:27:51;;;;;;;22.02;11.63;;;;;;;;;;5044018;28;20037;-77
2022/01/24 16:30:17;;;;;;;20.75;11.18;;;;;;;;;;5034477;28;20506;-77
2022/01/24 16:32:42;;;;;;;31.60;13.15;;;;;;;;;;5036738;28;20032;-77
2022/01/24 16:35:09;;;;;;;25.52;12.25;;;;;;;;;;5017373;28;20045;-77
2022/01/24 16:37:36;;;;;;;25.27;12.52;;;;;;;;;;5000821;28;20103;-77
2022/01/24 16:40:09;;;;;;;21.48;12.02;;;;;;;;;;5001102;28;20037;-77
2022/01/24 16:42:40;;;;;;;25.85;12.10;;;;;;;;;;5033772;28;20044;-77
2022/01/24 16:47:02;;;;;;;23.90;11.82;;;;;;;;;;5019754;28;20041;-77
2022/01/24 16:48:00;;;;;;;26.30;11.93;;;;;;;;;;5029367;28;20499;-77
2022/01/24 16:50:26;;;;;;;24.15;11.40;;;;;;;;;;5005110;28;20048;-77
2022/01/24 16:52:51;;;;;;;25.23;12.52;;;;;;;;;;5020632;28;20098;-76
2022/01/24 16:55:17;;;;;;;25.33;11.73;;;;;;;;;;5004914;28;20044;-76
2022/01/24 16:57:43;;;;;;;24.35;12.48;;;;;;;;;;5021659;28;20033;-77